createdAt,value
2023-12-22T00:00:03.944Z,136.98
2023-12-22T00:01:03.923Z,138.10
2023-12-22T00:02:03.956Z,139.66
2023-12-22T00:03:03.995Z,136.27
2023-12-22T00:04:03.895Z,134.27
2023-12-22T00:05:03.952Z,134.24
2023-12-22T00:06:03.957Z,134.30
2023-12-22T00:07:03.870Z,134.57
2023-12-22T00:08:03.978Z,138.81
2023-12-22T00:09:03.853Z,138.72
2023-12-22T00:10:03.814Z,137.92
2023-12-22T00:11:03.781Z,138.00
2023-12-22T00:12:03.711Z,138.00
2023-12-22T00:13:03.661Z,136.29
2023-12-22T00:14:03.685Z,133.86
2023-12-22T00:15:03.561Z,133.68
2023-12-22T00:16:03.526Z,134.27
2023-12-22T00:17:03.463Z,134.36
2023-12-22T00:18:03.441Z,131.62
2023-12-22T00:19:03.405Z,131.83
2023-12-22T00:20:03.368Z,128.89
2023-12-22T00:21:03.265Z,127.18
2023-12-22T00:22:03.203Z,127.74
2023-12-22T00:23:03.164Z,130.52
2023-12-22T00:24:03.297Z,129.73
2023-12-22T00:25:03.125Z,130.13
2023-12-22T00:26:03.042Z,130.23
2023-12-22T00:27:02.971Z,127.51
2023-12-22T00:28:02.932Z,126.14
2023-12-22T00:29:02.904Z,125.72
2023-12-22T00:30:02.984Z,125.86
2023-12-22T00:31:02.939Z,123.20
2023-12-22T00:32:02.904Z,118.19
2023-12-22T00:33:02.956Z,117.35
2023-12-22T00:34:02.931Z,116.79
2023-12-22T00:35:02.928Z,115.56
2023-12-22T00:36:02.886Z,114.31
2023-12-22T00:37:02.889Z,110.21
2023-12-22T00:38:03.025Z,99.98
2023-12-22T00:39:02.949Z,93.01
2023-12-22T00:40:02.951Z,94.40
2023-12-22T00:41:02.961Z,96.78
2023-12-22T00:42:03.004Z,95.84
2023-12-22T00:43:03.000Z,95.01
2023-12-22T00:44:02.976Z,86.35
2023-12-22T00:45:02.996Z,83.56
2023-12-22T00:46:03.016Z,86.82
2023-12-22T00:47:03.003Z,88.26
2023-12-22T00:48:03.095Z,83.13
2023-12-22T00:49:03.037Z,78.27
2023-12-22T00:50:03.076Z,72.73
2023-12-22T00:51:03.004Z,73.05
2023-12-22T00:52:03.006Z,77.33
2023-12-22T00:53:02.957Z,76.89
2023-12-22T00:54:02.925Z,63.73
2023-12-22T00:55:02.900Z,64.36
2023-12-22T00:56:02.841Z,64.65
2023-12-22T00:57:02.786Z,66.63
2023-12-22T00:58:02.723Z,63.49
2023-12-22T00:59:11.037Z,62.73
2023-12-22T01:00:03.636Z,66.81
2023-12-22T01:01:02.580Z,63.72
2023-12-22T01:02:02.511Z,63.09
2023-12-22T01:03:02.478Z,60.21
2023-12-22T01:04:02.413Z,59.32
2023-12-22T01:05:02.475Z,53.69
2023-12-22T01:06:02.412Z,50.99
2023-12-22T01:07:02.286Z,51.16
2023-12-22T01:08:02.317Z,51.65
2023-12-22T01:09:02.212Z,54.77
2023-12-22T01:10:02.209Z,55.02
2023-12-22T01:11:02.124Z,55.75
2023-12-22T01:12:02.097Z,57.75
2023-12-22T01:13:02.033Z,60.53
2023-12-22T01:14:02.068Z,70.20
2023-12-22T01:15:01.992Z,71.20
2023-12-22T01:16:01.890Z,69.50
2023-12-22T01:17:01.860Z,70.41
2023-12-22T01:18:01.894Z,70.76
2023-12-22T01:19:01.998Z,71.77
2023-12-22T01:20:01.724Z,73.01
2023-12-22T01:21:01.780Z,74.95
2023-12-22T01:22:01.624Z,75.01
2023-12-22T01:23:01.592Z,76.04
2023-12-22T01:24:01.536Z,77.59
2023-12-22T01:25:01.445Z,67.05
2023-12-22T01:26:01.462Z,64.28
2023-12-22T01:27:01.355Z,59.02
2023-12-22T01:28:04.603Z,52.98
2023-12-22T01:29:01.261Z,45.65
2023-12-22T01:30:01.171Z,46.28
2023-12-22T01:31:01.164Z,49.08
2023-12-22T01:32:01.124Z,53.74
2023-12-22T01:33:01.090Z,56.56
2023-12-22T01:34:01.087Z,57.66
2023-12-22T01:35:00.883Z,60.29
2023-12-22T01:36:00.853Z,60.47
2023-12-22T01:37:00.771Z,60.48
2023-12-22T01:38:00.793Z,60.31
2023-12-22T01:39:00.686Z,54.29
2023-12-22T01:40:00.643Z,52.48
2023-12-22T01:41:00.697Z,49.05
2023-12-22T01:42:00.597Z,51.60
2023-12-22T01:43:00.557Z,52.08
2023-12-22T01:44:00.548Z,55.63
2023-12-22T01:45:00.465Z,57.50
2023-12-22T01:46:00.404Z,58.65
2023-12-22T01:47:00.399Z,59.03
2023-12-22T01:48:00.402Z,59.23
2023-12-22T01:49:00.310Z,60.29
2023-12-22T01:50:00.317Z,62.69
2023-12-22T01:51:00.167Z,64.74
2023-12-22T01:52:00.105Z,66.56
2023-12-22T01:53:00.149Z,66.32
2023-12-22T01:54:00.036Z,64.59
2023-12-22T01:54:59.976Z,64.60
2023-12-22T01:56:00.024Z,68.70
2023-12-22T01:56:59.881Z,68.16
2023-12-22T01:57:59.836Z,68.70
2023-12-22T01:58:59.819Z,69.39
2023-12-22T01:59:59.788Z,69.84
2023-12-22T02:00:59.864Z,68.77
2023-12-22T02:01:59.880Z,65.88
2023-12-22T02:02:59.812Z,68.49
2023-12-22T02:03:59.907Z,68.32
2023-12-22T02:04:59.904Z,70.04
2023-12-22T02:05:59.932Z,67.36
2023-12-22T02:06:59.835Z,65.05
2023-12-22T02:07:59.837Z,67.88
2023-12-22T02:08:59.715Z,67.94
2023-12-22T02:09:59.670Z,66.33
2023-12-22T02:10:59.662Z,61.77
2023-12-22T02:11:59.606Z,55.81
2023-12-22T02:12:59.553Z,32.97
2023-12-22T02:13:59.559Z,51.11
2023-12-22T02:14:59.476Z,55.01
2023-12-22T02:15:59.427Z,57.63
2023-12-22T02:16:59.426Z,53.92
2023-12-22T02:17:59.316Z,51.01
2023-12-22T02:18:59.319Z,49.47
2023-12-22T02:19:59.249Z,51.19
2023-12-22T02:20:59.174Z,61.46
2023-12-22T02:21:59.140Z,61.73
2023-12-22T02:22:59.124Z,63.04
2023-12-22T02:23:59.018Z,64.20
2023-12-22T02:24:58.979Z,64.43
2023-12-22T02:25:59.030Z,67.86
2023-12-22T02:26:58.883Z,67.55
2023-12-22T02:27:58.847Z,65.29
2023-12-22T02:28:58.814Z,57.14
2023-12-22T02:29:58.715Z,52.42
2023-12-22T02:30:58.682Z,51.69
2023-12-22T02:31:58.694Z,50.05
2023-12-22T02:32:58.660Z,48.66
2023-12-22T02:33:58.653Z,49.84
2023-12-22T02:34:58.585Z,49.71
2023-12-22T02:35:58.418Z,50.26
2023-12-22T02:36:58.348Z,50.04
2023-12-22T02:37:58.356Z,51.63
2023-12-22T02:38:58.277Z,47.65
2023-12-22T02:39:58.219Z,36.88
2023-12-22T02:40:58.272Z,41.23
2023-12-22T02:41:58.224Z,47.14
2023-12-22T02:42:58.249Z,50.44
2023-12-22T02:43:58.277Z,45.74
2023-12-22T02:44:58.220Z,47.67
2023-12-22T02:45:58.196Z,51.86
2023-12-22T02:46:58.250Z,60.79
2023-12-22T02:47:58.282Z,61.88
2023-12-22T02:48:58.294Z,49.62
2023-12-22T02:49:58.295Z,49.84
2023-12-22T02:50:58.232Z,50.00
2023-12-22T02:51:58.203Z,55.27
2023-12-22T02:52:58.314Z,46.28
2023-12-22T02:53:58.203Z,44.19
2023-12-22T02:54:58.185Z,39.64
2023-12-22T02:55:58.239Z,45.16
2023-12-22T02:56:58.205Z,51.41
2023-12-22T02:57:58.220Z,51.67
2023-12-22T02:58:58.232Z,52.63
2023-12-22T02:59:58.154Z,54.58
2023-12-22T03:00:58.204Z,58.86
2023-12-22T03:01:58.173Z,61.78
2023-12-22T03:02:58.156Z,56.61
2023-12-22T03:03:58.139Z,58.18
2023-12-22T03:04:58.163Z,57.54
2023-12-22T03:05:58.141Z,56.62
2023-12-22T03:06:58.125Z,57.66
2023-12-22T03:07:58.169Z,59.61
2023-12-22T03:08:58.092Z,51.47
2023-12-22T03:09:58.121Z,45.94
2023-12-22T03:10:58.036Z,47.00
2023-12-22T03:11:57.962Z,40.83
2023-12-22T03:12:57.965Z,29.62
2023-12-22T03:13:57.928Z,27.39
2023-12-22T03:14:57.870Z,28.86
2023-12-22T03:15:57.831Z,36.52
2023-12-22T03:16:57.834Z,44.51
2023-12-22T03:17:57.806Z,50.74
2023-12-22T03:18:57.755Z,49.00
2023-12-22T03:19:57.737Z,46.61
2023-12-22T03:20:57.648Z,46.88
2023-12-22T03:21:57.572Z,54.16
2023-12-22T03:22:57.664Z,59.78
2023-12-22T03:23:57.579Z,54.32
2023-12-22T03:24:57.565Z,52.58
2023-12-22T03:25:57.617Z,50.17
2023-12-22T03:26:57.581Z,50.71
2023-12-22T03:27:57.587Z,51.77
2023-12-22T03:28:57.631Z,52.94
2023-12-22T03:29:57.606Z,54.65
2023-12-22T03:30:57.626Z,57.75
2023-12-22T03:31:57.623Z,59.42
2023-12-22T03:32:57.692Z,63.57
2023-12-22T03:33:57.695Z,61.60
2023-12-22T03:34:57.723Z,59.81
2023-12-22T03:35:57.607Z,59.86
2023-12-22T03:36:57.564Z,59.20
2023-12-22T03:37:57.619Z,62.09
2023-12-22T03:38:57.578Z,69.03
2023-12-22T03:39:57.632Z,69.27
2023-12-22T03:40:57.667Z,62.56
2023-12-22T03:41:57.673Z,59.04
2023-12-22T03:42:58.267Z,56.02
2023-12-22T03:43:57.760Z,56.80
2023-12-22T03:44:57.687Z,57.11
2023-12-22T03:45:57.685Z,58.50
2023-12-22T03:46:57.693Z,60.93
2023-12-22T03:47:57.637Z,68.91
2023-12-22T03:48:57.657Z,68.98
2023-12-22T03:49:57.586Z,69.11
2023-12-22T03:50:57.493Z,63.52
2023-12-22T03:51:57.448Z,61.33
2023-12-22T03:52:57.494Z,61.71
2023-12-22T03:53:57.334Z,61.25
2023-12-22T03:54:57.303Z,62.26
2023-12-22T03:55:57.294Z,61.19
2023-12-22T03:56:57.200Z,63.29
2023-12-22T03:57:57.149Z,65.52
2023-12-22T03:58:57.247Z,65.73
2023-12-22T03:59:57.063Z,68.44
2023-12-22T04:00:57.065Z,70.85
2023-12-22T04:01:57.094Z,71.79
2023-12-22T04:02:58.509Z,74.25
2023-12-22T04:03:57.059Z,75.17
2023-12-22T04:04:57.166Z,75.95
2023-12-22T04:05:57.014Z,76.24
2023-12-22T04:06:56.975Z,79.57
2023-12-22T04:07:56.990Z,79.40
2023-12-22T04:08:56.939Z,79.33
2023-12-22T04:09:56.963Z,78.45
2023-12-22T04:10:56.972Z,78.61
2023-12-22T04:11:56.949Z,81.99
2023-12-22T04:12:56.906Z,82.87
2023-12-22T04:13:56.958Z,86.11
2023-12-22T04:14:56.860Z,91.14
2023-12-22T04:15:56.830Z,94.41
2023-12-22T04:16:56.786Z,87.91
2023-12-22T04:17:56.911Z,85.67
2023-12-22T04:18:56.902Z,88.88
2023-12-22T04:19:57.063Z,89.15
2023-12-22T04:20:56.821Z,84.54
2023-12-22T04:21:56.796Z,84.60
2023-12-22T04:22:56.837Z,85.09
2023-12-22T04:23:56.721Z,85.15
2023-12-22T04:24:56.673Z,84.38
2023-12-22T04:25:56.727Z,85.57
2023-12-22T04:26:56.596Z,90.92
2023-12-22T04:27:56.486Z,96.26
2023-12-22T04:28:56.532Z,100.59
2023-12-22T04:29:56.397Z,104.04
2023-12-22T04:30:56.338Z,104.81
2023-12-22T04:31:56.342Z,104.25
2023-12-22T04:32:56.250Z,102.12
2023-12-22T04:33:56.178Z,100.27
2023-12-22T04:34:56.261Z,88.46
2023-12-22T04:35:56.166Z,84.04
2023-12-22T04:36:56.143Z,84.06
2023-12-22T04:37:56.151Z,84.33
2023-12-22T04:38:56.073Z,80.74
2023-12-22T04:39:56.030Z,80.37
2023-12-22T04:40:56.108Z,83.79
2023-12-22T04:41:55.974Z,83.07
2023-12-22T04:42:55.958Z,80.80
2023-12-22T04:43:55.996Z,80.17
2023-12-22T04:44:55.875Z,83.27
2023-12-22T04:45:55.859Z,84.76
2023-12-22T04:46:55.914Z,83.43
2023-12-22T04:47:55.832Z,84.74
2023-12-22T04:48:55.849Z,84.04
2023-12-22T04:49:55.816Z,86.81
2023-12-22T04:50:55.767Z,87.41
2023-12-22T04:51:57.199Z,86.97
2023-12-22T04:52:56.028Z,84.97
2023-12-22T04:53:55.974Z,83.02
2023-12-22T04:54:56.014Z,86.64
2023-12-22T04:55:56.121Z,89.34
2023-12-22T04:56:56.079Z,91.98
2023-12-22T04:57:56.075Z,95.38
2023-12-22T04:58:56.129Z,96.26
2023-12-22T04:59:56.054Z,96.51
2023-12-22T05:00:56.036Z,96.67
2023-12-22T05:01:56.035Z,98.51
2023-12-22T05:02:56.020Z,97.61
2023-12-22T05:03:56.016Z,94.29
2023-12-22T05:04:56.102Z,91.00
2023-12-22T05:05:56.072Z,89.14
2023-12-22T05:06:56.044Z,89.97
2023-12-22T05:07:56.039Z,91.24
2023-12-22T05:08:56.011Z,93.33
2023-12-22T05:09:55.978Z,89.07
2023-12-22T05:10:55.969Z,86.28
2023-12-22T05:11:55.865Z,84.64
2023-12-22T05:12:55.850Z,81.32
2023-12-22T05:13:55.878Z,79.29
2023-12-22T05:14:55.715Z,71.74
2023-12-22T05:15:55.667Z,74.18
2023-12-22T05:16:55.763Z,66.61
2023-12-22T05:17:55.632Z,62.48
2023-12-22T05:18:55.613Z,61.27
2023-12-22T05:19:55.568Z,56.46
2023-12-22T05:20:55.476Z,59.66
2023-12-22T05:21:55.445Z,55.30
2023-12-22T05:22:55.481Z,56.53
2023-12-22T05:23:55.408Z,53.51
2023-12-22T05:24:55.386Z,53.61
2023-12-22T05:25:55.496Z,52.51
2023-12-22T05:26:55.342Z,49.60
2023-12-22T05:27:55.330Z,50.48
2023-12-22T05:28:55.322Z,54.61
2023-12-22T05:29:55.263Z,55.07
2023-12-22T05:30:55.222Z,55.95
2023-12-22T05:31:55.267Z,53.17
2023-12-22T05:32:55.214Z,54.73
2023-12-22T05:33:55.138Z,51.34
2023-12-22T05:34:55.180Z,51.41
2023-12-22T05:35:55.138Z,55.75
2023-12-22T05:36:55.069Z,58.09
2023-12-22T05:37:55.058Z,56.15
2023-12-22T05:38:55.001Z,56.25
2023-12-22T05:39:54.986Z,56.36
2023-12-22T05:41:02.611Z,50.00
2023-12-22T05:42:02.979Z,50.00
2023-12-22T05:43:02.534Z,50.00
2023-12-22T05:44:02.681Z,50.00
2023-12-22T05:45:02.616Z,50.00
2023-12-22T05:46:02.605Z,50.00
2023-12-22T05:47:02.688Z,48.57
2023-12-22T05:48:02.694Z,59.86
2023-12-22T05:49:02.790Z,50.37
2023-12-22T05:50:02.897Z,50.00
2023-12-22T05:51:02.670Z,53.17
2023-12-22T05:52:02.699Z,53.67
2023-12-22T05:53:02.758Z,54.18
2023-12-22T05:54:02.703Z,54.73
2023-12-22T05:55:02.734Z,48.53
2023-12-22T05:56:02.788Z,41.75
2023-12-22T05:57:02.778Z,47.39
2023-12-22T05:58:02.785Z,60.42
2023-12-22T05:59:02.868Z,68.34
2023-12-22T06:00:02.906Z,68.39
2023-12-22T06:01:02.863Z,68.85
2023-12-22T06:02:02.834Z,57.25
2023-12-22T06:03:02.820Z,43.03
2023-12-22T06:04:02.826Z,52.21
2023-12-22T06:05:02.955Z,53.97
2023-12-22T06:06:06.135Z,54.31
2023-12-22T06:07:02.869Z,51.01
2023-12-22T06:08:02.923Z,50.03
2023-12-22T06:09:02.886Z,46.39
2023-12-22T06:10:02.872Z,46.30
2023-12-22T06:11:02.911Z,39.60
2023-12-22T06:12:02.845Z,50.39
2023-12-22T06:13:02.855Z,53.42
2023-12-22T06:14:03.034Z,56.17
2023-12-22T06:15:02.883Z,49.50
2023-12-22T06:16:02.900Z,50.73
2023-12-22T06:17:02.937Z,59.47
2023-12-22T06:18:02.968Z,65.23
2023-12-22T06:19:02.967Z,61.20
2023-12-22T06:20:03.033Z,70.45
2023-12-22T06:21:03.168Z,78.76
2023-12-22T06:22:03.026Z,74.64
2023-12-22T06:23:03.048Z,86.62
2023-12-22T06:24:03.066Z,92.72
2023-12-22T06:25:03.103Z,100.78
2023-12-22T06:26:03.142Z,108.24
2023-12-22T06:27:03.125Z,130.40
2023-12-22T06:28:03.165Z,157.64
2023-12-22T06:29:03.312Z,165.44
2023-12-22T06:30:03.351Z,168.29
2023-12-22T06:31:03.206Z,205.98
2023-12-22T06:32:03.308Z,186.65
2023-12-22T06:33:03.316Z,169.16
2023-12-22T06:34:03.696Z,144.99
2023-12-22T06:35:03.384Z,134.77
2023-12-22T06:36:03.363Z,124.41
2023-12-22T06:37:03.300Z,130.19
2023-12-22T06:38:03.393Z,128.58
2023-12-22T06:39:03.350Z,130.64
2023-12-22T06:40:28.714Z,50.00
2023-12-22T06:41:29.013Z,50.00
2023-12-22T06:42:28.702Z,50.00
2023-12-22T06:43:28.654Z,50.00
2023-12-22T06:44:28.672Z,50.00
2023-12-22T06:45:28.678Z,49.04
2023-12-22T06:46:28.970Z,52.29
2023-12-22T06:47:28.927Z,50.00
2023-12-22T06:48:28.814Z,48.86
2023-12-22T06:49:28.834Z,60.20
2023-12-22T06:50:29.372Z,60.48
2023-12-22T06:51:28.854Z,56.20
2023-12-22T06:52:28.831Z,45.88
2023-12-22T06:53:28.837Z,51.42
2023-12-22T06:54:28.965Z,73.57
2023-12-22T06:55:29.461Z,60.83
2023-12-22T06:56:28.840Z,63.38
2023-12-22T06:57:29.480Z,64.73
2023-12-22T06:58:29.033Z,65.13
2023-12-22T06:59:29.928Z,68.07
2023-12-22T07:00:28.911Z,72.16
2023-12-22T07:01:28.933Z,66.47
2023-12-22T07:02:30.222Z,77.43
2023-12-22T07:03:29.105Z,95.02
2023-12-22T07:04:29.020Z,82.44
2023-12-22T07:05:29.062Z,85.66
2023-12-22T07:06:29.046Z,95.74
2023-12-22T07:07:29.087Z,118.07
2023-12-22T07:08:29.156Z,109.64
2023-12-22T07:09:29.207Z,104.12
2023-12-22T07:10:29.328Z,108.27
2023-12-22T07:11:37.395Z,113.91
2023-12-22T07:12:30.464Z,114.15
2023-12-22T07:13:30.595Z,115.87
2023-12-22T07:14:29.313Z,122.27
2023-12-22T07:15:29.443Z,131.88
2023-12-22T07:16:29.530Z,127.17
2023-12-22T07:17:29.358Z,128.17
2023-12-22T07:18:29.432Z,130.09
2023-12-22T07:19:29.369Z,126.54
2023-12-22T07:20:29.351Z,131.12
2023-12-22T07:21:29.357Z,149.02
2023-12-22T07:22:29.696Z,158.86
2023-12-22T07:23:29.461Z,167.65
2023-12-22T07:24:29.614Z,162.07
2023-12-22T07:25:30.970Z,163.99
2023-12-22T07:26:30.449Z,177.32
2023-12-22T07:27:29.516Z,177.60
2023-12-22T07:28:29.537Z,153.56
2023-12-22T07:29:29.611Z,160.94
2023-12-22T07:30:29.547Z,170.09
2023-12-22T07:31:29.629Z,170.39
2023-12-22T07:32:30.016Z,137.75
2023-12-22T07:33:29.674Z,130.68
2023-12-22T07:34:30.051Z,138.77
2023-12-22T07:35:29.618Z,125.29
2023-12-22T07:36:29.625Z,91.52
2023-12-22T07:37:29.748Z,93.41
2023-12-22T07:38:29.661Z,107.13
2023-12-22T07:39:29.706Z,116.68
2023-12-22T07:40:29.716Z,118.41
2023-12-22T07:41:29.765Z,97.02
2023-12-22T07:42:29.728Z,80.60
2023-12-22T07:43:29.830Z,85.58
2023-12-22T07:44:29.728Z,86.39
2023-12-22T07:45:29.783Z,66.45
2023-12-22T07:46:29.746Z,60.81
2023-12-22T07:47:29.900Z,56.62
2023-12-22T07:48:29.807Z,54.04
2023-12-22T07:49:30.313Z,60.17
2023-12-22T07:50:29.871Z,50.39
2023-12-22T07:51:29.804Z,53.67
2023-12-22T07:52:29.866Z,53.07
2023-12-22T07:53:29.828Z,54.46
2023-12-22T07:54:29.870Z,54.72
2023-12-22T07:55:29.929Z,54.61
2023-12-22T07:56:32.174Z,56.85
2023-12-22T07:57:29.966Z,63.86
2023-12-22T07:58:30.063Z,79.09
2023-12-22T07:59:31.849Z,85.91
2023-12-22T08:00:30.271Z,101.60
2023-12-22T08:01:30.370Z,117.21
2023-12-22T08:02:30.402Z,112.94
2023-12-22T08:03:30.501Z,116.58
2023-12-22T08:04:30.666Z,117.03
2023-12-22T08:05:30.534Z,117.23
2023-12-22T08:06:30.807Z,116.91
2023-12-22T08:07:31.510Z,118.24
2023-12-22T08:08:30.641Z,124.22
2023-12-22T08:09:30.652Z,122.05
2023-12-22T08:10:30.675Z,118.21
2023-12-22T08:11:30.664Z,107.62
2023-12-22T08:12:30.717Z,107.72
2023-12-22T08:13:30.791Z,110.69
2023-12-22T08:14:30.767Z,112.34
2023-12-22T08:15:36.377Z,113.08
2023-12-22T08:16:31.811Z,113.48
2023-12-22T08:17:30.870Z,111.31
2023-12-22T08:18:31.685Z,105.53
2023-12-22T08:19:32.121Z,111.23
2023-12-22T08:20:34.252Z,111.32
2023-12-22T08:21:39.417Z,113.21
2023-12-22T08:22:33.219Z,113.54
2023-12-22T08:23:32.084Z,113.48
2023-12-22T08:24:31.173Z,114.61
2023-12-22T08:25:31.146Z,113.02
2023-12-22T08:26:31.098Z,113.25
2023-12-22T08:27:31.112Z,100.81
2023-12-22T08:28:31.144Z,99.38
2023-12-22T08:29:31.449Z,104.66
2023-12-22T08:30:31.161Z,104.88
2023-12-22T08:31:31.196Z,123.08
2023-12-22T08:32:31.242Z,127.82
2023-12-22T08:33:31.273Z,118.89
2023-12-22T08:34:31.295Z,128.11
2023-12-22T08:35:31.246Z,137.75
2023-12-22T08:36:31.287Z,134.00
2023-12-22T08:37:31.285Z,139.87
2023-12-22T08:38:31.400Z,146.12
2023-12-22T08:39:31.399Z,154.92
2023-12-22T08:40:31.686Z,154.93
2023-12-22T08:41:31.450Z,150.03
2023-12-22T08:42:31.505Z,154.66
2023-12-22T08:43:31.512Z,158.38
2023-12-22T08:44:31.475Z,168.28
2023-12-22T08:45:31.452Z,175.31
2023-12-22T08:46:31.580Z,179.82
2023-12-22T08:47:31.537Z,186.14
2023-12-22T08:48:31.586Z,195.89
2023-12-22T08:49:31.550Z,207.77
2023-12-22T08:50:31.986Z,218.16
2023-12-22T08:51:31.688Z,197.83
2023-12-22T08:52:31.601Z,174.55
2023-12-22T08:53:31.597Z,150.43
2023-12-22T08:54:31.665Z,148.49
2023-12-22T08:55:31.758Z,144.81
2023-12-22T08:56:31.788Z,147.62
2023-12-22T08:57:31.863Z,148.78
2023-12-22T08:58:31.910Z,155.76
2023-12-22T08:59:31.913Z,162.83
2023-12-22T09:00:31.924Z,159.86
2023-12-22T09:01:31.965Z,160.15
2023-12-22T09:02:31.942Z,161.96
2023-12-22T09:03:32.478Z,165.91
2023-12-22T09:04:32.045Z,161.15
2023-12-22T09:05:32.081Z,149.66
2023-12-22T09:06:32.016Z,145.57
2023-12-22T09:07:32.002Z,148.87
2023-12-22T09:08:31.969Z,151.37
2023-12-22T09:09:32.043Z,154.71
2023-12-22T09:10:32.079Z,163.60
2023-12-22T09:11:32.024Z,167.76
2023-12-22T09:12:32.065Z,174.99
2023-12-22T09:13:32.050Z,184.64
2023-12-22T09:14:32.066Z,189.51
2023-12-22T09:15:32.040Z,159.23
2023-12-22T09:16:32.105Z,142.91
2023-12-22T09:17:32.233Z,145.39
2023-12-22T09:18:32.319Z,151.00
2023-12-22T09:19:32.309Z,151.71
2023-12-22T09:20:32.524Z,155.90
2023-12-22T09:21:32.262Z,141.19
2023-12-22T09:22:32.379Z,128.96
2023-12-22T09:23:32.343Z,125.18
2023-12-22T09:24:32.392Z,117.03
2023-12-22T09:25:32.544Z,120.42
2023-12-22T09:26:32.439Z,112.70
2023-12-22T09:27:32.490Z,104.65
2023-12-22T09:28:32.698Z,108.74
2023-12-22T09:29:32.585Z,103.69
2023-12-22T09:30:32.651Z,119.53
2023-12-22T09:31:33.506Z,117.89
2023-12-22T09:32:32.992Z,111.42
2023-12-22T09:33:32.829Z,113.88
2023-12-22T09:34:32.884Z,106.32
2023-12-22T09:35:32.839Z,98.65
2023-12-22T09:36:32.906Z,100.56
2023-12-22T09:37:33.496Z,155.88
2023-12-22T09:38:33.002Z,145.17
2023-12-22T09:39:33.001Z,119.88
2023-12-22T09:40:33.119Z,88.65
2023-12-22T09:41:33.217Z,80.18
2023-12-22T09:42:33.124Z,84.89
2023-12-22T09:43:33.169Z,95.55
2023-12-22T09:44:33.160Z,83.51
2023-12-22T09:45:33.307Z,74.40
2023-12-22T09:46:33.268Z,75.53
2023-12-22T09:47:33.287Z,89.64
2023-12-22T09:48:33.270Z,93.30
2023-12-22T09:49:33.436Z,76.65
2023-12-22T09:50:33.432Z,80.13
2023-12-22T09:51:33.456Z,68.14
2023-12-22T09:52:34.508Z,61.02
2023-12-22T09:53:33.544Z,64.00
2023-12-22T09:54:33.701Z,58.81
2023-12-22T09:55:33.620Z,63.96
2023-12-22T09:56:33.668Z,57.85
2023-12-22T09:57:33.752Z,54.18
2023-12-22T09:58:33.879Z,50.03
2023-12-22T09:59:33.969Z,53.46
2023-12-22T10:00:33.948Z,51.02
2023-12-22T10:01:34.058Z,50.67
2023-12-22T10:02:33.999Z,50.00
2023-12-22T10:03:34.101Z,55.18
2023-12-22T10:04:34.267Z,55.85
2023-12-22T10:05:34.393Z,59.39
2023-12-22T10:06:34.237Z,57.17
2023-12-22T10:07:34.339Z,58.30
2023-12-22T10:08:34.322Z,64.36
2023-12-22T10:09:35.382Z,64.25
2023-12-22T10:10:34.533Z,73.71
2023-12-22T10:11:34.524Z,80.76
2023-12-22T10:12:34.569Z,80.05
2023-12-22T10:13:34.685Z,80.02
2023-12-22T10:14:36.640Z,87.38
2023-12-22T10:15:34.818Z,79.42
2023-12-22T10:16:35.527Z,75.03
2023-12-22T10:17:34.739Z,75.34
2023-12-22T10:18:34.842Z,77.72
2023-12-22T10:19:34.808Z,74.55
2023-12-22T10:20:34.813Z,74.04
2023-12-22T10:21:35.973Z,74.91
2023-12-22T10:22:34.838Z,79.95
2023-12-22T10:23:34.824Z,87.88
2023-12-22T10:24:34.798Z,99.36
2023-12-22T10:25:34.888Z,132.78
2023-12-22T10:26:34.816Z,151.64
2023-12-22T10:27:34.823Z,142.32
2023-12-22T10:28:34.822Z,127.16
2023-12-22T10:29:34.766Z,116.61
2023-12-22T10:30:34.792Z,115.41
2023-12-22T10:31:35.534Z,119.09
2023-12-22T10:32:35.005Z,119.18
2023-12-22T10:33:35.987Z,120.37
2023-12-22T10:34:35.066Z,121.49
2023-12-22T10:35:35.098Z,130.78
2023-12-22T10:36:35.108Z,146.12
2023-12-22T10:37:35.159Z,124.49
2023-12-22T10:38:35.316Z,130.45
2023-12-22T10:39:35.382Z,124.31
2023-12-22T10:40:35.357Z,118.79
2023-12-22T10:41:35.423Z,142.07
2023-12-22T10:42:35.421Z,132.97
2023-12-22T10:43:35.510Z,136.04
2023-12-22T10:44:35.647Z,127.74
2023-12-22T10:45:35.690Z,127.20
2023-12-22T10:46:35.813Z,120.45
2023-12-22T10:47:35.832Z,122.34
2023-12-22T10:48:36.031Z,128.80
2023-12-22T10:49:35.956Z,134.96
2023-12-22T10:50:36.000Z,148.71
2023-12-22T10:51:36.047Z,134.14
2023-12-22T10:52:36.165Z,130.65
2023-12-22T10:53:36.187Z,143.93
2023-12-22T10:54:36.208Z,158.44
2023-12-22T10:55:36.317Z,150.95
2023-12-22T10:56:36.385Z,146.58
2023-12-22T10:57:36.367Z,126.57
2023-12-22T10:58:36.444Z,115.83
2023-12-22T10:59:40.540Z,116.48
2023-12-22T11:00:36.541Z,116.69
2023-12-22T11:01:36.517Z,118.08
2023-12-22T11:02:36.943Z,121.80
2023-12-22T11:03:36.565Z,125.49
2023-12-22T11:04:36.615Z,130.93
2023-12-22T11:05:36.573Z,131.10
2023-12-22T11:06:36.680Z,131.24
2023-12-22T11:07:36.666Z,125.86
2023-12-22T11:08:37.476Z,126.72
2023-12-22T11:09:36.668Z,131.63
2023-12-22T11:10:36.999Z,129.20
2023-12-22T11:11:36.709Z,131.73
2023-12-22T11:12:36.755Z,140.11
2023-12-22T11:13:36.824Z,143.35
2023-12-22T11:14:36.796Z,143.30
2023-12-22T11:15:36.818Z,135.95
2023-12-22T11:16:36.909Z,134.54
2023-12-22T11:17:37.078Z,139.25
2023-12-22T11:18:36.930Z,144.07
2023-12-22T11:19:36.973Z,148.98
2023-12-22T11:20:36.953Z,175.50
2023-12-22T11:21:36.953Z,176.08
2023-12-22T11:22:36.945Z,179.71
2023-12-22T11:23:36.969Z,181.21
2023-12-22T11:24:36.929Z,191.28
2023-12-22T11:25:36.940Z,210.90
2023-12-22T11:26:36.908Z,199.82
2023-12-22T11:27:36.880Z,195.58
2023-12-22T11:28:36.876Z,177.48
2023-12-22T11:29:36.821Z,172.76
2023-12-22T11:30:36.814Z,184.16
2023-12-22T11:31:36.834Z,184.22
2023-12-22T11:32:36.867Z,175.51
2023-12-22T11:33:36.887Z,171.59
2023-12-22T11:34:37.568Z,173.05
2023-12-22T11:35:36.884Z,169.52
2023-12-22T11:36:36.852Z,170.17
2023-12-22T11:37:36.982Z,172.72
2023-12-22T11:38:36.885Z,172.03
2023-12-22T11:39:36.945Z,172.41
2023-12-22T11:40:37.016Z,170.56
2023-12-22T11:41:36.942Z,167.27
2023-12-22T11:42:36.955Z,168.54
2023-12-22T11:43:37.038Z,163.07
2023-12-22T11:44:37.041Z,162.66
2023-12-22T11:45:37.106Z,170.09
2023-12-22T11:46:37.213Z,166.03
2023-12-22T11:47:37.154Z,167.76
2023-12-22T11:48:37.240Z,168.89
2023-12-22T11:49:37.417Z,173.79
2023-12-22T11:50:37.316Z,176.46
2023-12-22T11:51:37.447Z,180.80
2023-12-22T11:52:37.548Z,183.98
2023-12-22T11:53:37.382Z,191.68
2023-12-22T11:54:37.382Z,199.26
2023-12-22T11:55:37.438Z,188.28
2023-12-22T11:56:37.420Z,175.88
2023-12-22T11:57:37.473Z,176.54
2023-12-22T11:58:37.617Z,178.12
2023-12-22T11:59:37.555Z,178.36
2023-12-22T12:00:38.514Z,175.67
2023-12-22T12:01:37.637Z,166.43
2023-12-22T12:02:37.588Z,165.36
2023-12-22T12:03:37.507Z,171.18
2023-12-22T12:04:37.663Z,178.57
2023-12-22T12:05:37.674Z,179.57
2023-12-22T12:06:37.460Z,180.49
2023-12-22T12:07:37.503Z,184.28
2023-12-22T12:08:37.467Z,191.62
2023-12-22T12:09:37.490Z,195.75
2023-12-22T12:10:37.469Z,199.59
2023-12-22T12:11:37.393Z,200.19
2023-12-22T12:12:37.442Z,200.00
2023-12-22T12:13:37.405Z,199.81
2023-12-22T12:14:37.361Z,199.61
2023-12-22T12:15:37.364Z,198.57
2023-12-22T12:16:37.490Z,199.98
2023-12-22T12:17:37.347Z,199.71
2023-12-22T12:18:37.341Z,206.96
2023-12-22T12:19:37.395Z,210.84
2023-12-22T12:20:37.394Z,199.70
2023-12-22T12:21:40.063Z,199.51
2023-12-22T12:22:37.540Z,200.00
2023-12-22T12:23:40.044Z,200.27
2023-12-22T12:24:37.461Z,200.47
2023-12-22T12:26:06.191Z,50.00
2023-12-22T12:27:06.043Z,50.00
2023-12-22T12:28:06.310Z,50.00
2023-12-22T12:29:06.205Z,50.00
2023-12-22T12:30:06.072Z,50.00
2023-12-22T12:31:06.112Z,50.00
2023-12-22T12:32:06.155Z,50.00
2023-12-22T12:33:06.266Z,50.00
2023-12-22T12:34:06.344Z,50.00
2023-12-22T12:35:06.264Z,50.00
2023-12-22T12:36:06.452Z,50.00
2023-12-22T12:37:06.415Z,50.00
2023-12-22T12:38:06.209Z,52.82
2023-12-22T12:39:06.579Z,79.23
2023-12-22T12:40:06.230Z,82.59
2023-12-22T12:41:06.325Z,65.85
2023-12-22T12:42:06.189Z,65.91
2023-12-22T12:43:06.287Z,62.48